Time;durP1;ratioP1;P1;durP2;ratioP2;P2;SDS_P1;SDS_P2;PMS_P1;PMS_P2;Temp;Humidity;BMP_temperature;BMP_pressure;BME280_temperature;BME280_humidity;BME280_pressure;Samples;Min_cycle;Max_cycle;Signal;HPM_P1;HPM_P2
2022/05/29 00:00:13;;;;;;;19.17;5.72;;;11.50;99.90;;;;;;5018888;28;20053;-91
2022/05/29 00:02:40;;;;;;;22.42;5.32;;;11.50;99.90;;;;;;5018605;28;20059;-90
2022/05/29 00:05:07;;;;;;;26.95;6.93;;;11.50;99.90;;;;;;5036535;28;20038;-91
2022/05/29 00:07:33;;;;;;;38.20;4.97;;;11.50;99.90;;;;;;5018106;28;20041;-91
2022/05/29 00:10:01;;;;;;;34.00;5.53;;;11.40;99.90;;;;;;5036340;28;20064;-92
2022/05/29 00:12:27;;;;;;;26.77;6.40;;;11.50;99.90;;;;;;5018791;28;20041;-91
2022/05/29 00:14:53;;;;;;;34.95;5.38;;;11.50;99.90;;;;;;5018645;28;20401;-90
2022/05/29 00:17:19;;;;;;;24.67;7.47;;;11.50;99.90;;;;;;5018404;28;20049;-90
2022/05/29 00:19:45;;;;;;;18.25;4.88;;;11.50;99.90;;;;;;5036165;28;20041;-90
2022/05/29 00:22:16;;;;;;;23.25;5.18;;;11.50;99.90;;;;;;5036293;28;20117;-91
2022/05/29 00:24:45;;;;;;;22.40;6.13;;;11.50;99.90;;;;;;5036146;28;20136;-90
2022/05/29 00:27:11;;;;;;;30.45;5.25;;;11.50;99.90;;;;;;5018361;28;20050;-90
2022/05/29 00:29:38;;;;;;;19.42;4.80;;;11.50;99.90;;;;;;5018064;28;20397;-90
2022/05/29 00:32:05;;;;;;;26.85;5.65;;;11.50;99.90;;;;;;5018334;28;20050;-91
2022/05/29 00:34:32;;;;;;;17.55;4.15;;;11.50;99.90;;;;;;5018155;28;20049;-91
2022/05/29 00:36:58;;;;;;;23.17;5.55;;;11.50;99.90;;;;;;5018166;28;20073;-93
2022/05/29 00:39:25;;;;;;;25.45;5.43;;;11.50;99.90;;;;;;5036918;28;20400;-93
2022/05/29 00:41:51;;;;;;;26.92;6.32;;;11.50;99.90;;;;;;5024107;28;20043;-93
2022/05/29 00:44:21;;;;;;;32.60;7.03;;;11.50;99.90;;;;;;5019362;28;20042;-92
2022/05/29 00:46:50;;;;;;;36.45;7.93;;;11.50;99.90;;;;;;5018820;28;20081;-91
2022/05/29 00:49:19;;;;;;;34.20;6.93;;;11.50;99.90;;;;;;5017916;28;20050;-92
2022/05/29 00:51:59;;;;;;;37.10;6.57;;;11.50;99.90;;;;;;5018088;28;20041;-91
2022/05/29 00:54:26;;;;;;;39.10;6.38;;;11.50;99.90;;;;;;5035657;28;20084;-92
2022/05/29 00:56:53;;;;;;;29.85;5.25;;;11.60;99.90;;;;;;5035464;28;20053;-90
2022/05/29 00:59:27;;;;;;;39.30;7.07;;;11.50;99.90;;;;;;5017599;28;20087;-92
2022/05/29 01:01:54;;;;;;;22.70;5.68;;;11.50;99.90;;;;;;5018040;28;20056;-92
2022/05/29 01:04:21;;;;;;;20.95;4.55;;;11.40;99.90;;;;;;5017959;28;20509;-92
2022/05/29 01:06:46;;;;;;;25.60;4.15;;;11.40;99.90;;;;;;5035349;28;20029;-92
2022/05/29 01:09:16;;;;;;;18.35;3.25;;;11.50;99.90;;;;;;5017585;28;20045;-93
2022/05/29 01:12:05;;;;;;;21.05;4.35;;;11.50;99.90;;;;;;5017547;28;20149;-93
2022/05/29 01:14:36;;;;;;;19.17;4.68;;;11.50;99.90;;;;;;5035304;28;20144;-92
2022/05/29 01:17:18;;;;;;;10.82;3.28;;;11.50;99.90;;;;;;5034476;28;20521;-93
2022/05/29 01:20:13;;;;;;;22.33;4.63;;;11.60;99.90;;;;;;5017352;28;20060;-93
2022/05/29 01:22:58;;;;;;;22.13;4.40;;;11.70;99.90;;;;;;5035174;28;20140;-91
2022/05/29 01:26:00;;;;;;;25.67;6.03;;;11.70;99.90;;;;;;5017268;28;20053;-88
2022/05/29 01:28:58;;;;;;;17.80;4.30;;;11.60;99.90;;;;;;5017409;28;20045;-92
2022/05/29 01:31:30;;;;;;;18.30;3.80;;;11.60;99.90;;;;;;5013346;28;20053;-92
2022/05/29 01:34:28;;;;;;;21.00;4.25;;;11.60;99.90;;;;;;5034764;28;20400;-92
2022/05/29 01:37:12;;;;;;;23.20;4.57;;;11.50;99.90;;;;;;5017261;28;20120;-93
2022/05/29 01:39:56;;;;;;;19.42;3.85;;;11.50;99.90;;;;;;5017020;28;20099;-90
2022/05/29 01:42:27;;;;;;;16.30;3.72;;;11.50;99.90;;;;;;5016872;28;20045;-83
2022/05/29 01:45:11;;;;;;;19.20;3.97;;;11.60;99.90;;;;;;5017019;28;20049;-84
2022/05/29 01:47:46;;;;;;;23.30;4.15;;;11.60;99.90;;;;;;5016968;28;20089;-84
2022/05/29 01:50:20;;;;;;;16.02;4.38;;;11.60;99.90;;;;;;5034471;28;20516;-85
2022/05/29 01:53:00;;;;;;;20.02;3.63;;;11.60;99.90;;;;;;5034486;28;20041;-85
2022/05/29 01:55:50;;;;;;;12.43;3.08;;;11.60;99.90;;;;;;5034690;28;20449;-85
2022/05/29 01:58:20;;;;;;;16.15;3.00;;;11.70;99.90;;;;;;5016692;28;20081;-86
2022/05/29 02:00:48;;;;;;;13.18;2.92;;;11.60;99.90;;;;;;5016640;28;20049;-86
2022/05/29 02:03:19;;;;;;;22.10;3.97;;;11.60;99.90;;;;;;5034019;28;20441;-88
2022/05/29 02:06:05;;;;;;;21.63;3.78;;;11.60;99.90;;;;;;5034181;28;20488;-87
2022/05/29 02:08:42;;;;;;;19.30;3.78;;;11.60;99.90;;;;;;5016820;28;20064;-90
2022/05/29 02:11:19;;;;;;;16.73;3.28;;;11.70;99.90;;;;;;5034228;28;20124;-92
2022/05/29 02:13:57;;;;;;;17.92;4.45;;;11.60;99.90;;;;;;5034061;28;20521;-93
2022/05/29 02:16:44;;;;;;;26.80;5.15;;;11.50;99.90;;;;;;5016198;28;20103;-91
2022/05/29 02:19:11;;;;;;;35.28;4.57;;;11.50;99.90;;;;;;5033851;28;20054;-91
2022/05/29 02:21:48;;;;;;;16.33;4.20;;;11.40;99.90;;;;;;5034018;28;20481;-92
2022/05/29 02:24:17;;;;;;;14.73;3.50;;;11.30;99.90;;;;;;5016416;28;20103;-83
2022/05/29 02:26:55;;;;;;;16.10;3.38;;;11.30;99.90;;;;;;5016343;28;20478;-85
2022/05/29 02:29:21;;;;;;;13.38;2.50;;;11.30;99.90;;;;;;5033708;28;20120;-85
2022/05/29 02:32:17;;;;;;;13.43;3.53;;;11.20;99.90;;;;;;5033807;28;20048;-86
2022/05/29 02:35:11;;;;;;;11.38;4.90;;;11.30;99.90;;;;;;5016254;28;20507;-86
2022/05/29 02:38:00;;;;;;;18.42;3.45;;;11.30;99.90;;;;;;5016587;28;20064;-86
2022/05/29 02:40:47;;;;;;;8.07;1.77;;;11.30;99.90;;;;;;5033712;28;20488;-86
2022/05/29 02:43:40;;;;;;;7.97;2.63;;;11.20;99.90;;;;;;5033799;28;20041;-86
2022/05/29 02:46:11;;;;;;;;;;;11.20;99.90;;;;;;5016574;28;20562;-87
2022/05/29 02:48:47;;;;;;;13.30;2.50;;;11.20;99.90;;;;;;5016269;28;19927;-87
2022/05/29 02:51:38;;;;;;;9.98;1.88;;;11.10;99.90;;;;;;5015749;28;20485;-87
2022/05/29 02:54:03;;;;;;;13.40;2.67;;;11.20;99.90;;;;;;5033709;28;20045;-87
2022/05/29 02:56:29;;;;;;;14.75;2.83;;;11.20;99.90;;;;;;5016168;28;20454;-87
2022/05/29 02:58:57;;;;;;;12.38;2.85;;;11.20;99.90;;;;;;5016192;28;20443;-87
2022/05/29 03:01:38;;;;;;;10.38;2.72;;;11.20;99.90;;;;;;5033514;28;20080;-86
2022/05/29 03:04:26;;;;;;;14.25;2.40;;;11.20;99.90;;;;;;5033581;28;20045;-86
2022/05/29 03:07:23;;;;;;;12.63;2.55;;;11.10;99.90;;;;;;5015608;28;20485;-86
2022/05/29 03:10:09;;;;;;;12.27;2.83;;;11.20;99.90;;;;;;5033773;28;20393;-86
2022/05/29 03:13:08;;;;;;;7.85;3.22;;;11.20;99.90;;;;;;5015683;28;20049;-86
2022/05/29 03:15:58;;;;;;;12.55;2.92;;;11.20;99.90;;;;;;5033616;28;20049;-86
2022/05/29 03:18:46;;;;;;;11.32;3.28;;;11.10;99.90;;;;;;5033143;28;20049;-86
2022/05/29 03:21:21;;;;;;;7.97;2.58;;;11.10;99.90;;;;;;5015653;28;20049;-86
2022/05/29 03:24:03;;;;;;;10.20;2.17;;;11.00;99.90;;;;;;5015900;28;20081;-85
2022/05/29 03:26:48;;;;;;;14.23;3.13;;;10.90;99.90;;;;;;5015631;28;20133;-88
2022/05/29 03:29:21;;;;;;;14.13;2.90;;;11.00;99.90;;;;;;5015310;28;20111;-87
2022/05/29 03:31:49;;;;;;;20.25;2.97;;;10.90;99.90;;;;;;5033367;28;20108;-86
2022/05/29 03:34:15;;;;;;;24.50;3.15;;;10.90;99.90;;;;;;5015801;28;20084;-86
2022/05/29 03:36:49;;;;;;;26.50;3.28;;;10.90;99.90;;;;;;5015340;28;20107;-86
2022/05/29 03:39:15;;;;;;;14.50;2.17;;;10.80;99.90;;;;;;5014928;28;20045;-86
2022/05/29 03:41:45;;;;;;;13.77;1.92;;;10.90;99.90;;;;;;5034262;28;20046;-87
2022/05/29 03:44:12;;;;;;;19.38;3.45;;;10.80;99.90;;;;;;5019188;28;20113;-86
2022/05/29 03:46:39;;;;;;;15.85;3.75;;;10.80;99.90;;;;;;5018795;28;20128;-86
2022/05/29 03:49:09;;;;;;;10.10;3.28;;;10.70;99.90;;;;;;5018729;28;20091;-86
2022/05/29 03:51:35;;;;;;;29.52;5.47;;;10.80;99.90;;;;;;5018923;28;20471;-89
2022/05/29 03:54:02;;;;;;;19.45;3.25;;;10.80;99.90;;;;;;5018926;28;20048;-88
2022/05/29 03:56:28;;;;;;;15.02;3.38;;;10.80;99.90;;;;;;5036624;28;20048;-88
2022/05/29 03:58:54;;;;;;;9.45;1.90;;;10.80;99.90;;;;;;5018728;28;20041;-88
2022/05/29 04:01:20;;;;;;;14.40;3.25;;;10.80;99.90;;;;;;5018885;28;20107;-87
2022/05/29 04:03:46;;;;;;;11.52;3.33;;;10.80;99.90;;;;;;5018734;28;20107;-86
2022/05/29 04:06:11;;;;;;;14.40;2.92;;;10.90;99.90;;;;;;5018942;28;20115;-88
2022/05/29 04:12:03;;;;;;;11.02;2.65;;;10.90;99.90;;;;;;5018361;28;20429;-89
2022/05/29 04:14:10;;;;;;;12.35;2.53;;;10.90;99.90;;;;;;5025252;28;20057;-90
2022/05/29 04:16:36;;;;;;;20.95;3.05;;;10.80;99.90;;;;;;5036122;28;20057;-89
2022/05/29 04:19:02;;;;;;;15.70;2.65;;;10.90;99.90;;;;;;5018444;28;20057;-88
2022/05/29 04:21:28;;;;;;;15.82;2.20;;;10.90;99.90;;;;;;5018512;28;20052;-89
2022/05/29 04:23:53;;;;;;;17.02;2.00;;;10.90;99.90;;;;;;5036246;28;20464;-87
2022/05/29 04:26:19;;;;;;;20.48;3.50;;;10.90;99.90;;;;;;5018088;28;20049;-88
2022/05/29 04:28:45;;;;;;;16.60;2.83;;;11.00;99.90;;;;;;5018172;28;20045;-89
2022/05/29 04:31:10;;;;;;;12.95;2.50;;;11.00;99.90;;;;;;5018568;28;20053;-88
2022/05/29 04:33:36;;;;;;;15.00;3.25;;;11.10;99.90;;;;;;5036066;28;20394;-88
2022/05/29 04:36:03;;;;;;;6.97;2.08;;;11.10;99.90;;;;;;5018526;28;20045;-88
2022/05/29 04:38:28;;;;;;;7.68;2.00;;;11.10;99.90;;;;;;5018173;28;20045;-90
2022/05/29 04:40:55;;;;;;;15.60;3.05;;;11.20;99.90;;;;;;5018218;28;20037;-90
2022/05/29 04:43:21;;;;;;;11.27;2.03;;;11.20;99.90;;;;;;5017910;28;20080;-88
2022/05/29 04:45:51;;;;;;;13.32;2.20;;;11.20;99.90;;;;;;5018082;28;20049;-91
2022/05/29 04:48:17;;;;;;;15.48;2.75;;;11.20;99.90;;;;;;5017887;28;20049;-90
2022/05/29 04:50:42;;;;;;;13.63;2.28;;;11.20;99.90;;;;;;5017671;28;20049;-90
2022/05/29 04:53:09;;;;;;;10.50;2.30;;;11.20;99.90;;;;;;5017483;28;20049;-85
2022/05/29 04:55:35;;;;;;;16.00;2.33;;;11.20;99.90;;;;;;5017526;28;20041;-84
2022/05/29 04:58:01;;;;;;;15.93;2.30;;;11.10;99.90;;;;;;5035111;28;20042;-85
2022/05/29 05:00:27;;;;;;;18.73;2.67;;;11.10;99.90;;;;;;5017371;28;20065;-86
2022/05/29 05:02:53;;;;;;;14.93;2.10;;;11.00;99.90;;;;;;5017332;28;20049;-85
2022/05/29 05:05:19;;;;;;;13.02;2.58;;;11.00;99.90;;;;;;5017712;28;20053;-86
2022/05/29 05:07:45;;;;;;;11.43;2.40;;;10.90;99.90;;;;;;5035003;28;20057;-86
2022/05/29 05:10:15;;;;;;;14.23;2.38;;;10.90;99.90;;;;;;5017126;28;20405;-90
2022/05/29 05:12:41;;;;;;;16.85;3.22;;;10.90;99.90;;;;;;5017143;28;20049;-87
2022/05/29 05:15:09;;;;;;;14.23;2.67;;;10.90;99.90;;;;;;5017436;28;20132;-87
2022/05/29 05:17:35;;;;;;;14.30;2.78;;;10.90;99.90;;;;;;5016988;28;20129;-88
2022/05/29 05:20:01;;;;;;;18.98;3.05;;;10.90;99.90;;;;;;5034837;28;20493;-87
2022/05/29 05:22:27;;;;;;;17.08;4.22;;;10.90;99.90;;;;;;5017027;28;20056;-87
2022/05/29 05:24:53;;;;;;;14.85;2.55;;;11.00;99.90;;;;;;5017267;28;20045;-89
2022/05/29 05:27:18;;;;;;;14.30;2.85;;;11.00;99.90;;;;;;5016860;28;20405;-89
2022/05/29 05:29:44;;;;;;;17.20;4.15;;;11.10;99.90;;;;;;5034482;28;20041;-88
2022/05/29 05:32:10;;;;;;;7.50;2.20;;;11.10;99.90;;;;;;5034784;28;20041;-88
2022/05/29 05:34:36;;;;;;;14.98;2.42;;;11.10;99.90;;;;;;5016736;28;20127;-89
2022/05/29 05:37:02;;;;;;;14.80;2.42;;;11.10;99.90;;;;;;5016923;28;20191;-89
2022/05/29 05:39:28;;;;;;;14.05;2.00;;;11.20;99.90;;;;;;5017170;28;20124;-88
2022/05/29 05:41:53;;;;;;;16.88;2.83;;;11.20;99.90;;;;;;5016620;28;20520;-89
2022/05/29 05:44:20;;;;;;;10.80;2.15;;;11.20;99.90;;;;;;5016882;28;20037;-90
2022/05/29 05:46:48;;;;;;;12.68;2.28;;;11.20;99.90;;;;;;5016497;28;20056;-87
2022/05/29 05:49:17;;;;;;;17.02;3.58;;;11.20;99.90;;;;;;5034269;28;20045;-87
2022/05/29 05:51:45;;;;;;;13.73;1.75;;;11.20;99.90;;;;;;5016496;28;20049;-86
2022/05/29 05:54:12;;;;;;;13.45;2.40;;;11.30;99.90;;;;;;5016360;28;20045;-86
2022/05/29 05:56:45;;;;;;;13.70;1.83;;;11.30;99.90;;;;;;5016659;28;20049;-86
2022/05/29 05:59:11;;;;;;;8.32;1.80;;;11.20;99.90;;;;;;5016551;28;20053;-85
2022/05/29 06:01:37;;;;;;;15.50;2.35;;;11.20;99.90;;;;;;5016399;28;20081;-86
2022/05/29 06:04:04;;;;;;;11.77;2.15;;;11.20;99.90;;;;;;5033725;28;20042;-88
2022/05/29 06:06:30;;;;;;;9.63;2.60;;;11.20;99.90;;;;;;5016178;28;20472;-87
2022/05/29 06:08:56;;;;;;;10.02;2.20;;;11.30;99.90;;;;;;5016032;28;20125;-87
2022/05/29 06:11:27;;;;;;;6.93;1.60;;;11.30;99.90;;;;;;5016085;28;20100;-87
2022/05/29 06:13:53;;;;;;;15.07;1.83;;;11.30;99.90;;;;;;5034024;28;20034;-87
2022/05/29 06:16:19;;;;;;;11.52;2.65;;;11.30;99.90;;;;;;5015873;28;20128;-83
2022/05/29 06:18:44;;;;;;;9.00;2.35;;;11.30;99.90;;;;;;5016092;28;20125;-84
2022/05/29 06:21:10;;;;;;;13.32;2.58;;;11.30;99.90;;;;;;5016157;28;20056;-88
2022/05/29 06:23:38;;;;;;;10.55;2.03;;;11.30;99.90;;;;;;5033507;28;20381;-89
2022/05/29 06:26:12;;;;;;;12.48;2.00;;;11.30;99.90;;;;;;5033811;28;20049;-85
2022/05/29 06:28:38;;;;;;;8.55;1.65;;;11.40;99.90;;;;;;5015841;28;20038;-90
2022/05/29 06:31:06;;;;;;;10.40;2.38;;;11.30;99.90;;;;;;5048194;23;20089;-88
2022/05/29 06:33:32;;;;;;;8.00;1.20;;;11.20;99.90;;;;;;4996204;28;20077;-88
2022/05/29 06:36:15;;;;;;;12.50;2.45;;;11.20;99.90;;;;;;4995953;28;20141;-88
2022/05/29 06:38:42;;;;;;;10.82;2.00;;;11.20;99.90;;;;;;5013774;28;20049;-87
2022/05/29 06:41:10;;;;;;;8.73;1.67;;;11.20;99.90;;;;;;4995902;28;20050;-92
2022/05/29 06:43:36;;;;;;;13.70;2.03;;;11.30;99.90;;;;;;4995956;28;20132;-86
2022/05/29 06:46:03;;;;;;;7.97;1.42;;;11.20;99.90;;;;;;4995775;28;20054;-87
2022/05/29 06:48:31;;;;;;;10.20;2.15;;;11.20;99.90;;;;;;4996268;28;20045;-90
2022/05/29 06:50:56;;;;;;;7.60;1.40;;;11.30;99.90;;;;;;4995705;28;20061;-86
2022/05/29 06:53:22;;;;;;;7.93;1.30;;;11.30;99.90;;;;;;4995815;28;20046;-85
2022/05/29 06:55:54;;;;;;;9.43;1.80;;;11.40;99.90;;;;;;5013599;28;20046;-87
2022/05/29 06:58:22;;;;;;;13.30;2.22;;;11.40;99.90;;;;;;4996010;28;20406;-87
2022/05/29 07:08:59;;;;;;;11.80;2.30;;;11.20;99.90;;;;;;4995601;28;20107;-87
2022/05/29 07:11:30;;;;;;;8.23;1.05;;;11.20;99.90;;;;;;4995655;28;20046;-86
2022/05/29 07:13:57;;;;;;;8.85;1.70;;;11.20;99.90;;;;;;4995654;28;20125;-86
2022/05/29 07:16:22;;;;;;;7.55;1.30;;;11.10;99.90;;;;;;4997072;28;20081;-87
2022/05/29 07:18:54;;;;;;;6.38;0.90;;;11.20;99.90;;;;;;4999514;28;20034;-87
2022/05/29 07:21:21;;;;;;;9.65;1.33;;;11.20;99.90;;;;;;4999494;28;20524;-87
2022/05/29 07:23:46;;;;;;;8.43;1.75;;;11.20;99.90;;;;;;4999322;28;20046;-85
2022/05/29 07:26:12;;;;;;;11.57;1.90;;;11.20;99.90;;;;;;4999445;28;20057;-93
2022/05/29 07:28:38;;;;;;;11.43;1.70;;;11.20;99.90;;;;;;5016907;28;20088;-87
2022/05/29 07:31:03;;;;;;;10.30;0.95;;;11.20;99.90;;;;;;4999270;28;20116;-88
2022/05/29 07:33:29;;;;;;;5.40;0.77;;;11.10;99.90;;;;;;4999496;28;20049;-87
2022/05/29 07:35:55;;;;;;;6.72;1.20;;;11.20;99.90;;;;;;4999208;28;20418;-86
2022/05/29 07:38:22;;;;;;;9.23;2.13;;;11.10;99.90;;;;;;4999060;28;20053;-86
2022/05/29 07:40:48;;;;;;;7.78;1.50;;;11.10;99.90;;;;;;4999421;28;20050;-84
2022/05/29 07:43:21;;;;;;;11.98;1.17;;;11.10;99.90;;;;;;5001133;28;20107;-89
2022/05/29 07:45:52;;;;;;;10.23;1.83;;;11.00;99.90;;;;;;5016606;28;20494;-90
2022/05/29 07:48:20;;;;;;;6.05;1.02;;;11.00;99.90;;;;;;5001985;28;20061;-94
2022/05/29 07:50:45;;;;;;;9.63;1.60;;;11.00;99.90;;;;;;5000996;28;20533;-94
2022/05/29 07:53:11;;;;;;;7.45;1.23;;;11.00;99.90;;;;;;5000662;28;20046;-95
2022/05/29 07:55:38;;;;;;;8.50;1.17;;;11.10;99.90;;;;;;5003432;28;20045;-92
2022/05/29 07:58:06;;;;;;;4.13;0.82;;;11.20;99.90;;;;;;5001918;28;20037;-95
2022/05/29 08:00:33;;;;;;;6.18;1.05;;;11.20;99.90;;;;;;5001671;28;20506;-93
2022/05/29 08:02:59;;;;;;;8.75;2.42;;;11.30;99.90;;;;;;4999527;28;20075;-89
2022/05/29 08:05:25;;;;;;;10.70;1.38;;;11.30;99.90;;;;;;5018125;28;20045;-95
2022/05/29 08:07:52;;;;;;;9.68;1.23;;;11.30;99.90;;;;;;5019883;28;20045;-88
2022/05/29 08:10:19;;;;;;;4.78;0.95;;;11.30;99.90;;;;;;5017391;28;20069;-93
2022/05/29 08:12:45;;;;;;;6.20;1.60;;;11.40;99.90;;;;;;4999697;28;20493;-87
2022/05/29 08:15:11;;;;;;;9.90;0.98;;;11.50;99.90;;;;;;4998957;28;20046;-94
2022/05/29 08:17:38;;;;;;;4.28;1.23;;;11.50;99.90;;;;;;5003508;28;20102;-94
2022/05/29 08:20:05;;;;;;;8.35;1.48;;;11.40;99.90;;;;;;4999664;28;20085;-88
2022/05/29 08:22:31;;;;;;;9.48;0.98;;;11.40;99.90;;;;;;4999538;28;20434;-92
2022/05/29 08:30:38;;;;;;;8.40;2.10;;;11.40;99.90;;;;;;5015663;28;20072;-84
2022/05/29 08:33:05;;;;;;;9.90;1.50;;;11.40;99.90;;;;;;4998576;28;20064;-90
2022/05/29 08:35:32;;;;;;;13.43;3.22;;;11.50;99.90;;;;;;4998292;28;20509;-89
2022/05/29 08:38:00;;;;;;;6.97;1.52;;;11.50;99.90;;;;;;4998095;28;20121;-89
2022/05/29 08:40:27;;;;;;;8.05;1.55;;;11.40;99.90;;;;;;4997854;28;20046;-89
2022/05/29 08:42:53;;;;;;;9.70;1.42;;;11.30;99.90;;;;;;4997466;28;20053;-88
2022/05/29 08:45:19;;;;;;;9.68;1.55;;;11.30;99.90;;;;;;4997869;28;20104;-87
2022/05/29 08:47:46;;;;;;;8.57;1.83;;;11.40;99.90;;;;;;4997902;28;20096;-87
2022/05/29 08:50:26;;;;;;;11.65;2.63;;;11.40;99.90;;;;;;5015523;28;20045;-86
2022/05/29 08:53:08;;;;;;;6.55;1.02;;;11.40;99.90;;;;;;4997731;28;20383;-86
2022/05/29 08:55:51;;;;;;;8.32;1.45;;;11.40;99.90;;;;;;4997805;28;20446;-86
2022/05/29 08:58:17;;;;;;;5.85;1.65;;;11.30;99.90;;;;;;4997495;28;20054;-86
2022/05/29 09:00:49;;;;;;;10.27;2.72;;;11.30;99.90;;;;;;4988418;28;20116;-87
2022/05/29 09:03:36;;;;;;;4.50;0.95;;;11.30;99.90;;;;;;4978391;28;20057;-87
2022/05/29 09:06:16;;;;;;;7.80;1.30;;;11.40;99.90;;;;;;4978436;28;20082;-87
2022/05/29 09:08:48;;;;;;;7.72;1.50;;;11.50;99.90;;;;;;4978034;28;20046;-86
2022/05/29 09:11:37;;;;;;;8.45;1.48;;;11.40;99.90;;;;;;4996823;28;20481;-89
2022/05/29 09:14:17;;;;;;;10.77;1.70;;;11.50;99.90;;;;;;4997584;28;20136;-90
2022/05/29 09:16:49;;;;;;;9.98;1.85;;;11.70;99.90;;;;;;4997229;28;20457;-88
2022/05/29 09:19:32;;;;;;;7.20;1.10;;;11.80;99.90;;;;;;5015082;28;20042;-88
2022/05/29 09:22:00;;;;;;;11.73;1.90;;;11.90;99.90;;;;;;5012680;28;20042;-88
2022/05/29 09:24:38;;;;;;;4.90;1.27;;;11.90;99.90;;;;;;4994560;28;20485;-87
2022/05/29 09:27:04;;;;;;;6.88;1.38;;;11.90;99.90;;;;;;5013450;28;20378;-88
2022/05/29 09:29:30;;;;;;;12.45;1.58;;;11.90;99.90;;;;;;4990630;28;20049;-89
2022/05/29 09:31:56;;;;;;;8.07;1.75;;;12.00;99.90;;;;;;4994820;28;20062;-88
2022/05/29 09:34:22;;;;;;;8.93;1.60;;;12.00;99.90;;;;;;4987228;28;20062;-88
2022/05/29 09:37:06;;;;;;;6.65;1.27;;;12.00;99.90;;;;;;4986018;28;20058;-88
2022/05/29 09:39:38;;;;;;;7.45;1.38;;;12.00;99.90;;;;;;4987057;28;20117;-88
2022/05/29 09:42:10;;;;;;;4.63;1.20;;;12.00;99.90;;;;;;4990309;28;20049;-88
2022/05/29 09:44:35;;;;;;;6.82;1.00;;;11.90;99.90;;;;;;5005774;28;20045;-86
2022/05/29 09:50:09;;;;;;;8.27;1.40;;;12.00;99.90;;;;;;4977215;28;20490;-87
2022/05/29 09:52:41;;;;;;;4.72;0.75;;;12.10;99.90;;;;;;4988610;28;20383;-87
2022/05/29 09:55:30;;;;;;;10.40;2.38;;;12.20;99.90;;;;;;5014151;28;20387;-87
2022/05/29 09:58:02;;;;;;;10.50;1.38;;;12.30;99.90;;;;;;5014371;28;20038;-88
2022/05/29 10:00:35;;;;;;;7.53;1.17;;;12.30;99.90;;;;;;5014067;28;20449;-89
2022/05/29 10:03:06;;;;;;;6.75;1.20;;;12.50;99.90;;;;;;4996810;28;20038;-89
2022/05/29 10:05:38;;;;;;;10.82;1.83;;;12.50;99.90;;;;;;5014199;28;20608;-91
2022/05/29 10:08:26;;;;;;;11.23;1.55;;;12.50;99.90;;;;;;5014048;28;20042;-92
2022/05/29 10:10:51;;;;;;;5.07;0.98;;;12.60;99.90;;;;;;5014074;28;20049;-91
2022/05/29 10:13:40;;;;;;;6.07;1.20;;;12.50;99.90;;;;;;5013586;28;20042;-91
2022/05/29 10:16:07;;;;;;;6.82;1.42;;;12.40;99.90;;;;;;4976848;28;20409;-87
2022/05/29 10:18:36;;;;;;;4.38;0.85;;;12.30;99.90;;;;;;4992807;28;20050;-89
2022/05/29 10:21:15;;;;;;;7.35;1.85;;;12.30;99.90;;;;;;4975345;28;20062;-90
2022/05/29 10:23:48;;;;;;;10.63;1.55;;;12.30;99.90;;;;;;4976545;28;20129;-90
2022/05/29 10:26:29;;;;;;;7.85;1.10;;;12.50;99.90;;;;;;4994875;28;20046;-87
2022/05/29 10:28:55;;;;;;;6.32;0.90;;;12.60;99.90;;;;;;5023687;28;20465;-89
2022/05/29 10:31:27;;;;;;;10.95;1.50;;;12.70;99.90;;;;;;4995788;28;20565;-90
2022/05/29 10:34:24;;;;;;;12.80;1.40;;;12.90;99.90;;;;;;4995951;28;20483;-91
2022/05/29 10:36:49;;;;;;;9.75;1.50;;;13.00;99.90;;;;;;4975925;28;20072;-92
2022/05/29 10:39:22;;;;;;;10.32;1.60;;;13.10;99.90;;;;;;4996440;28;20049;-93
2022/05/29 10:41:50;;;;;;;7.28;1.00;;;13.10;99.90;;;;;;4996130;28;20417;-92
2022/05/29 10:44:46;;;;;;;10.48;1.58;;;13.10;99.90;;;;;;4995552;28;20046;-90
2022/05/29 10:47:26;;;;;;;8.77;1.52;;;13.20;99.90;;;;;;4984461;28;20054;-90
2022/05/29 10:50:07;;;;;;;8.88;1.48;;;13.30;99.90;;;;;;5013360;28;20041;-86
2022/05/29 10:53:16;;;;;;;7.93;1.42;;;13.30;99.90;;;;;;5014294;28;20098;-88
2022/05/29 10:55:47;;;;;;;7.95;1.30;;;13.20;99.90;;;;;;5013597;28;20054;-89
2022/05/29 10:58:42;;;;;;;8.32;1.20;;;13.30;99.90;;;;;;4996124;28;20058;-88
2022/05/29 11:04:47;;;;;;;8.98;1.20;;;13.50;99.90;;;;;;4995877;28;20571;-90
2022/05/29 11:07:35;;;;;;;9.18;1.17;;;13.50;99.90;;;;;;5013523;28;20409;-88
2022/05/29 11:10:24;;;;;;;6.95;0.88;;;13.40;99.90;;;;;;5013934;28;20037;-88
2022/05/29 11:13:08;;;;;;;4.10;0.95;;;13.40;99.90;;;;;;5013711;28;20104;-89
2022/05/29 11:15:58;;;;;;;8.00;1.40;;;13.40;99.90;;;;;;5013527;28;20605;-88
2022/05/29 11:18:46;;;;;;;6.53;1.23;;;13.30;99.90;;;;;;4996045;28;20065;-86
2022/05/29 11:21:36;;;;;;;6.45;0.93;;;13.20;99.90;;;;;;4996012;28;20050;-88
2022/05/29 11:24:35;;;;;;;9.38;1.88;;;13.30;99.90;;;;;;5015706;28;20042;-87
2022/05/29 11:27:12;;;;;;;9.88;1.17;;;13.20;99.90;;;;;;5020764;28;20398;-87
2022/05/29 11:30:16;;;;;;;7.97;0.93;;;13.20;99.90;;;;;;4995543;28;20482;-87
2022/05/29 11:33:10;;;;;;;6.65;1.00;;;13.10;99.90;;;;;;4963815;28;20085;-88
2022/05/29 11:35:58;;;;;;;8.27;1.27;;;13.20;99.90;;;;;;4995971;28;20460;-91
2022/05/29 11:38:52;;;;;;;5.30;0.90;;;13.20;99.90;;;;;;4995629;28;20520;-87
2022/05/29 11:41:28;;;;;;;14.43;1.50;;;13.30;99.90;;;;;;5013210;28;20049;-91
2022/05/29 11:44:04;;;;;;;13.23;1.25;;;13.30;99.90;;;;;;5013124;28;20050;-90
2022/05/29 11:52:31;;;;;;;5.43;0.95;;;13.60;99.90;;;;;;5012884;28;20567;-89
2022/05/29 11:55:17;;;;;;;5.25;0.90;;;13.70;99.90;;;;;;4995798;28;20046;-85
2022/05/29 11:58:05;;;;;;;6.88;0.90;;;13.80;99.90;;;;;;5012857;28;20050;-83
2022/05/29 12:01:09;;;;;;;9.15;0.85;;;13.90;99.90;;;;;;4967132;28;20054;-86
2022/05/29 12:04:04;;;;;;;5.57;1.10;;;13.90;99.90;;;;;;4968536;28;20058;-87
2022/05/29 12:06:39;;;;;;;7.63;1.27;;;13.90;99.90;;;;;;5016477;28;20053;-86
2022/05/29 12:09:36;;;;;;;10.80;1.50;;;13.90;99.90;;;;;;4998490;28;20050;-86
2022/05/29 12:12:17;;;;;;;9.45;1.17;;;14.00;99.90;;;;;;4998613;28;20096;-87
2022/05/29 12:14:56;;;;;;;8.70;1.08;;;13.90;99.90;;;;;;5016159;28;20041;-87
2022/05/29 12:17:31;;;;;;;7.10;1.38;;;14.00;99.90;;;;;;4998784;28;20057;-87
2022/05/29 12:20:09;;;;;;;9.68;1.73;;;14.00;99.90;;;;;;4998400;28;20128;-85
2022/05/29 12:22:57;;;;;;;5.35;1.23;;;14.00;99.90;;;;;;4998225;28;20050;-86
2022/05/29 12:25:32;;;;;;;6.45;1.13;;;14.20;99.90;;;;;;4998638;28;20046;-87
2022/05/29 12:28:03;;;;;;;10.68;1.80;;;14.20;99.90;;;;;;5015708;28;20121;-85
2022/05/29 12:30:36;;;;;;;8.60;1.58;;;14.20;99.90;;;;;;4998189;28;20196;-88
2022/05/29 12:33:11;;;;;;;13.65;2.22;;;14.10;99.90;;;;;;4998159;28;20405;-87
2022/05/29 12:36:07;;;;;;;9.43;1.67;;;14.00;99.90;;;;;;5015756;28;20056;-87
2022/05/29 12:38:45;;;;;;;9.75;1.23;;;14.00;99.90;;;;;;4976020;28;20137;-87
2022/05/29 12:41:21;;;;;;;9.65;1.40;;;13.90;99.90;;;;;;4998445;28;20100;-88
2022/05/29 12:44:06;;;;;;;9.10;1.42;;;13.80;99.90;;;;;;5015670;28;20038;-88
2022/05/29 12:47:05;;;;;;;12.80;1.50;;;13.60;99.90;;;;;;5015640;28;20126;-89
2022/05/29 12:49:43;;;;;;;8.95;1.40;;;13.50;99.90;;;;;;4998098;28;20053;-90
2022/05/29 12:52:18;;;;;;;5.65;1.75;;;13.40;99.90;;;;;;4998111;28;20050;-88
2022/05/29 12:55:12;;;;;;;9.27;1.10;;;13.30;99.90;;;;;;4997845;28;20127;-88
2022/05/29 12:57:58;;;;;;;6.20;1.20;;;13.30;99.90;;;;;;4997648;28;20402;-89
2022/05/29 13:00:47;;;;;;;5.30;1.00;;;13.30;99.90;;;;;;4997806;28;20085;-88
2022/05/29 13:03:39;;;;;;;6.97;1.33;;;13.20;99.90;;;;;;4997904;28;20548;-89
2022/05/29 13:06:46;;;;;;;6.40;1.17;;;13.20;99.90;;;;;;4997907;28;20124;-89
2022/05/29 13:09:34;;;;;;;11.20;1.48;;;13.30;99.90;;;;;;4994553;28;20092;-89
2022/05/29 13:12:11;;;;;;;5.90;1.30;;;13.30;99.90;;;;;;4999459;28;20042;-89
2022/05/29 13:14:37;;;;;;;9.77;1.52;;;13.40;99.90;;;;;;4996953;28;20100;-89
2022/05/29 13:17:08;;;;;;;6.93;1.35;;;13.50;99.90;;;;;;4997664;28;20081;-89
2022/05/29 13:20:11;;;;;;;8.27;1.20;;;13.60;99.90;;;;;;4997741;28;20053;-89
2022/05/29 13:22:50;;;;;;;10.75;1.60;;;13.60;99.90;;;;;;5014769;28;20501;-88
2022/05/29 13:25:20;;;;;;;14.00;1.65;;;13.60;99.90;;;;;;5015162;28;20045;-88
2022/05/29 13:27:46;;;;;;;16.02;2.05;;;13.80;99.90;;;;;;5014910;28;20398;-87
2022/05/29 13:30:34;;;;;;;9.88;2.25;;;13.80;99.90;;;;;;4997053;28;20045;-89
2022/05/29 13:33:34;;;;;;;14.07;1.73;;;13.80;99.90;;;;;;4997164;28;20085;-88
2022/05/29 13:35:59;;;;;;;6.55;1.52;;;13.90;99.90;;;;;;4997021;28;20053;-86
2022/05/29 13:38:54;;;;;;;15.75;1.73;;;13.90;99.90;;;;;;4997106;28;20041;-85
2022/05/29 13:41:29;;;;;;;11.77;2.40;;;14.00;99.90;;;;;;4996847;28;20110;-89
2022/05/29 13:43:55;;;;;;;16.30;1.90;;;14.10;99.90;;;;;;4997580;28;20184;-89